Time;durP1;ratioP1;P1;durP2;ratioP2;P2;SDS_P1;SDS_P2;PMS_P1;PMS_P2;Temp;Humidity;BMP_temperature;BMP_pressure;BME280_temperature;BME280_humidity;BME280_pressure;Samples;Min_cycle;Max_cycle;Signal;HPM_P1;HPM_P2
2023/03/30 00:01:56;;;;;;;;;;;13.00;99.90;;;;;;5053352;28;19920;-63
2023/03/30 00:04:25;;;;;;;;;;;13.10;99.90;;;;;;5066078;28;20335;-63
2023/03/30 00:06:57;;;;;;;;;;;13.10;99.90;;;;;;5060191;28;19920;-63
2023/03/30 00:09:30;;;;;;;;;;;13.10;99.90;;;;;;5068477;28;19928;-63
2023/03/30 00:12:02;;;;;;;;;;;13.10;99.90;;;;;;5057285;28;19932;-63
2023/03/30 00:14:29;;;;;;;;;;;13.10;99.90;;;;;;5068524;28;20454;-63
2023/03/30 00:16:55;;;;;;;;;;;13.10;99.90;;;;;;5070582;28;19924;-63
2023/03/30 00:19:27;;;;;;;;;;;13.10;99.90;;;;;;5071086;28;20378;-63
2023/03/30 00:21:54;;;;;;;;;;;13.10;99.90;;;;;;5072048;28;19921;-63
2023/03/30 00:24:25;;;;;;;;;;;13.10;99.90;;;;;;5070285;28;19921;-63
2023/03/30 00:26:57;;;;;;;;;;;13.10;99.90;;;;;;5068439;28;19924;-63
2023/03/30 00:29:29;;;;;;;;;;;13.10;99.90;;;;;;5066290;28;19932;-63
2023/03/30 00:32:00;;;;;;;;;;;13.10;99.90;;;;;;5070684;28;19920;-63
2023/03/30 00:34:27;;;;;;;;;;;13.20;99.90;;;;;;5070545;28;19920;-63
2023/03/30 00:37:00;;;;;;;;;;;13.20;99.90;;;;;;5057578;28;19924;-63
2023/03/30 00:39:32;;;;;;;;;;;13.20;99.90;;;;;;5054999;28;19920;-63
2023/03/30 00:41:59;;;;;;;;;;;13.10;99.90;;;;;;5070600;28;19931;-63
2023/03/30 00:44:49;;;;;;;;;;;13.10;99.90;;;;;;5053111;28;19920;-63
2023/03/30 00:47:21;;;;;;;;;;;13.00;99.90;;;;;;5054671;28;20407;-63
2023/03/30 00:49:53;;;;;;;;;;;13.00;99.90;;;;;;5053546;28;19978;-64
2023/03/30 00:52:26;;;;;;;;;;;13.00;99.90;;;;;;5046542;28;20331;-63
2023/03/30 00:54:58;;;;;;;;;;;13.00;99.90;;;;;;5069965;28;19928;-63
2023/03/30 00:57:25;;;;;;;;;;;12.90;99.90;;;;;;5070132;28;19920;-63
2023/03/30 00:59:57;;;;;;;;;;;12.90;99.90;;;;;;5056995;28;20296;-64
2023/03/30 01:02:30;;;;;;;;;;;12.90;99.90;;;;;;5071689;28;19924;-63
2023/03/30 01:04:57;;;;;;;;;;;13.00;99.90;;;;;;5055970;28;20304;-63
2023/03/30 01:07:30;;;;;;;;;;;12.90;99.90;;;;;;5052576;28;20350;-63
2023/03/30 01:09:57;;;;;;;;;;;12.90;99.90;;;;;;5050927;28;19974;-63
2023/03/30 01:12:30;;;;;;;;;;;12.90;99.90;;;;;;5067628;28;19920;-63
2023/03/30 01:15:02;;;;;;;;;;;12.90;99.90;;;;;;5066186;28;20265;-63
2023/03/30 01:17:38;;;;;;;;;;;12.90;99.90;;;;;;5052134;28;19970;-63
2023/03/30 01:20:15;;;;;;;;;;;13.00;99.90;;;;;;5067981;28;19927;-63
2023/03/30 01:22:53;;;;;;;;;;;13.10;99.90;;;;;;5068689;28;19982;-63
2023/03/30 01:25:44;;;;;;;;;;;13.10;99.90;;;;;;5042152;28;19928;-63
2023/03/30 01:28:26;;;;;;;;;;;13.10;99.90;;;;;;5051665;28;19924;-63
2023/03/30 01:31:12;;;;;;;;;;;13.00;99.90;;;;;;5054139;28;20299;-63
2023/03/30 01:33:56;;;;;;;;;;;13.00;99.90;;;;;;5052661;28;19924;-63
2023/03/30 01:36:37;;;;;;;;;;;13.10;99.90;;;;;;5067142;28;19951;-63
2023/03/30 01:39:08;;;;;;;;;;;13.00;99.90;;;;;;5066490;28;20719;-64
2023/03/30 01:41:40;;;;;;;;;;;12.90;99.90;;;;;;5067453;28;19978;-64
2023/03/30 01:44:28;;;;;;;;;;;12.80;99.90;;;;;;5061808;28;20507;-64
2023/03/30 01:46:59;;;;;;;;;;;12.80;99.90;;;;;;5069110;28;19920;-64
2023/03/30 01:49:28;;;;;;;;;;;12.70;99.90;;;;;;5049532;28;19931;-64
2023/03/30 01:52:04;;;;;;;;;;;12.70;99.90;;;;;;5051424;28;19927;-63
2023/03/30 01:54:53;;;;;;;;;;;12.60;99.90;;;;;;5067596;28;20394;-63
2023/03/30 01:57:34;;;;;;;;;;;12.60;99.90;;;;;;5048918;28;19928;-64
2023/03/30 02:00:11;;;;;;;;;;;12.50;99.90;;;;;;5051582;28;20388;-64
2023/03/30 02:03:07;;;;;;;;;;;12.40;99.90;;;;;;5064183;28;19920;-63
2023/03/30 02:05:39;;;;;;;;;;;12.40;99.90;;;;;;5056357;28;19924;-64
2023/03/30 02:08:13;;;;;;;;;;;12.40;99.90;;;;;;5067305;28;19928;-64
2023/03/30 02:10:46;;;;;;;;;;;12.50;99.90;;;;;;5065449;28;20278;-64
2023/03/30 02:13:19;;;;;;;;;;;12.50;99.90;;;;;;5054073;28;19924;-64
2023/03/30 02:16:08;;;;;;;;;;;12.40;99.90;;;;;;5069163;28;19928;-64
2023/03/30 02:18:37;;;;;;;;;;;12.30;99.90;;;;;;5050193;28;19931;-64
2023/03/30 02:21:04;;;;;;;;;;;12.20;99.90;;;;;;5065547;28;19924;-64
2023/03/30 02:23:38;;;;;;;;;;;12.10;99.90;;;;;;5051045;28;20004;-64
2023/03/30 02:26:11;;;;;;;;;;;12.00;99.90;;;;;;5063452;28;19930;-64
2023/03/30 02:28:45;;;;;;;;;;;11.90;99.90;;;;;;5067028;28;20445;-64
2023/03/30 02:31:16;;;;;;;;;;;11.80;99.90;;;;;;5051020;28;19927;-64
2023/03/30 02:34:02;;;;;;;;;;;11.60;99.90;;;;;;5070381;28;19932;-64
2023/03/30 02:36:38;;;;;;;;;;;11.50;99.90;;;;;;5056843;28;19963;-63
2023/03/30 02:39:20;;;;;;;;;;;11.50;99.90;;;;;;5036104;28;19920;-64
2023/03/30 02:42:09;;;;;;;;;;;11.40;99.90;;;;;;5068520;28;19924;-64
2023/03/30 02:44:41;;;;;;;;;;;11.50;99.90;;;;;;5057967;28;19963;-63
2023/03/30 02:47:13;;;;;;;;;;;11.50;99.90;;;;;;5070902;28;19921;-64
2023/03/30 02:49:53;;;;;;;;;;;11.50;99.90;;;;;;5056986;28;19924;-64
2023/03/30 02:52:35;;;;;;;;;;;11.50;99.90;;;;;;5073624;28;19924;-64
2023/03/30 02:55:13;;;;;;;;;;;11.40;99.90;;;;;;5058856;28;19924;-64
2023/03/30 02:57:45;;;;;;;;;;;11.40;99.90;;;;;;5056075;28;19924;-64
2023/03/30 03:00:36;;;;;;;;;;;11.30;99.90;;;;;;5076351;28;19931;-64
2023/03/30 03:03:17;;;;;;;;;;;11.20;99.90;;;;;;5056427;28;20035;-64
2023/03/30 03:05:52;;;;;;;;;;;11.10;99.90;;;;;;5067131;28;19969;-64
2023/03/30 03:08:35;;;;;;;;;;;11.30;99.90;;;;;;5058618;28;19975;-64
2023/03/30 03:11:10;;;;;;;;;;;11.50;99.90;;;;;;5044823;28;19921;-64
2023/03/30 03:13:42;;;;;;;;;;;11.70;99.90;;;;;;5073215;28;19924;-64
2023/03/30 03:16:12;;;;;;;;;;;11.60;99.90;;;;;;5067332;28;19931;-64
2023/03/30 03:18:49;;;;;;;;;;;11.60;99.90;;;;;;5058580;28;19924;-64
2023/03/30 03:21:22;;;;;;;;;;;11.50;99.90;;;;;;5075686;28;19920;-64
2023/03/30 03:23:54;;;;;;;;;;;11.40;99.90;;;;;;5074853;28;19925;-64
2023/03/30 03:26:46;;;;;;;;;;;11.40;99.90;;;;;;5074629;28;20000;-63
2023/03/30 03:29:18;;;;;;;;;;;11.40;99.90;;;;;;5070558;28;20041;-64
2023/03/30 03:31:50;;;;;;;;;;;11.40;99.90;;;;;;5074507;28;20399;-64
2023/03/30 03:34:30;;;;;;;;;;;11.40;99.90;;;;;;5071903;28;19924;-64
2023/03/30 03:37:03;;;;;;;;;;;11.30;99.90;;;;;;5060203;28;19920;-64
2023/03/30 03:39:36;;;;;;;;;;;11.40;99.90;;;;;;5059977;28;20028;-64
2023/03/30 03:42:11;;;;;;;;;;;11.30;99.90;;;;;;5061223;28;20373;-63
2023/03/30 03:44:49;;;;;;;;;;;11.30;99.90;;;;;;5062153;28;19927;-64
2023/03/30 03:47:21;;;;;;;;;;;11.30;99.90;;;;;;5059638;28;19920;-64
2023/03/30 03:49:53;;;;;;;;;;;11.30;99.90;;;;;;5072003;28;20307;-64
2023/03/30 03:52:25;;;;;;;;;;;11.20;99.90;;;;;;5070012;28;20007;-64
2023/03/30 03:54:57;;;;;;;;;;;11.20;99.90;;;;;;5050895;28;19928;-63
2023/03/30 03:57:29;;;;;;;;;;;11.20;99.90;;;;;;5054009;28;20385;-64
2023/03/30 04:00:02;;;;;;;;;;;11.20;99.90;;;;;;5054469;28;20411;-64
2023/03/30 04:02:37;;;;;;;;;;;11.10;99.90;;;;;;5070228;28;20351;-64
2023/03/30 04:05:09;;;;;;;;;;;11.10;99.90;;;;;;5038804;28;19927;-64
2023/03/30 04:07:45;;;;;;;;;;;11.00;99.90;;;;;;5069063;28;19929;-64
2023/03/30 04:10:12;;;;;;;;;;;11.00;99.90;;;;;;5066764;28;19924;-64
2023/03/30 04:12:44;;;;;;;;;;;11.00;99.90;;;;;;5052300;28;20285;-65
2023/03/30 04:15:48;;;;;;;;;;;11.00;99.90;;;;;;5024718;28;19921;-64
2023/03/30 04:18:40;;;;;;;;;;;10.90;99.90;;;;;;5064179;28;20114;-63
2023/03/30 04:21:45;;;;;;;;;;;10.90;99.90;;;;;;5002893;28;20457;-64
2023/03/30 04:24:46;;;;;;;;;;;10.80;99.90;;;;;;5015446;28;19922;-64
2023/03/30 04:27:37;;;;;;;;;;;10.80;99.90;;;;;;5070702;28;19974;-64
2023/03/30 04:30:29;;;;;;;;;;;10.80;99.90;;;;;;5071595;28;20437;-64
2023/03/30 04:33:21;;;;;;;;;;;10.70;99.90;;;;;;5067333;28;20019;-64
2023/03/30 04:36:16;;;;;;;;;;;10.70;99.90;;;;;;5046142;28;20012;-64
2023/03/30 04:39:09;;;;;;;;;;;10.70;99.90;;;;;;5050054;28;19920;-64
2023/03/30 04:42:12;;;;;;;;;;;10.70;99.90;;;;;;5066204;28;19921;-64
2023/03/30 04:45:09;;;;;;;;;;;10.70;99.90;;;;;;5055147;28;19920;-65
2023/03/30 04:47:58;;;;;;;;;;;10.70;99.90;;;;;;5068500;28;19925;-64
2023/03/30 04:51:04;;;;;;;;;;;10.60;99.90;;;;;;5004930;28;19925;-64
2023/03/30 04:53:36;;;;;;;;;;;10.50;99.90;;;;;;5029152;28;19929;-64
2023/03/30 04:56:43;;;;;;;;;;;10.50;99.90;;;;;;5049398;28;19963;-64
2023/03/30 04:59:36;;;;;;;;;;;10.50;99.90;;;;;;5051002;28;20424;-64
2023/03/30 05:02:26;;;;;;;;;;;10.50;99.90;;;;;;5063014;28;19928;-64
2023/03/30 05:05:17;;;;;;;;;;;10.50;99.90;;;;;;5065511;28;19927;-64
2023/03/30 05:08:15;;;;;;;;;;;10.50;99.90;;;;;;5052818;28;20481;-64
2023/03/30 05:11:14;;;;;;;;;;;10.50;99.90;;;;;;5053087;28;20383;-65
2023/03/30 05:13:51;;;;;;;;;;;10.50;99.90;;;;;;5071095;28;19920;-65
2023/03/30 05:16:48;;;;;;;;;;;10.50;99.90;;;;;;5061633;28;19924;-65
2023/03/30 05:19:20;;;;;;;;;;;10.40;99.90;;;;;;5054824;28;19920;-64
2023/03/30 05:22:16;;;;;;;;;;;10.40;99.90;;;;;;5053797;28;20377;-65
2023/03/30 05:24:57;;;;;;;;;;;10.40;99.90;;;;;;5051207;28;19927;-64
2023/03/30 05:27:58;;;;;;;;;;;10.40;99.90;;;;;;4999990;28;20059;-64
2023/03/30 05:30:42;;;;;;;;;;;10.40;99.90;;;;;;5040277;28;20389;-65
2023/03/30 05:33:27;;;;;;;;;;;10.40;99.90;;;;;;5055796;28;19928;-64
2023/03/30 05:36:14;;;;;;;;;;;10.40;99.90;;;;;;5070210;28;19930;-64
2023/03/30 05:39:07;;;;;;;;;;;10.40;99.90;;;;;;5065609;28;19920;-64
2023/03/30 05:41:58;;;;;;;;;;;10.40;99.90;;;;;;5054077;28;19928;-64
2023/03/30 05:44:39;;;;;;;;;;;10.40;99.90;;;;;;5053972;28;19920;-64
2023/03/30 05:47:20;;;;;;;;;;;10.50;99.90;;;;;;5067073;28;20335;-64
2023/03/30 05:50:18;;;;;;;;;;;10.40;99.90;;;;;;5056747;28;19920;-64
2023/03/30 05:53:02;;;;;;;;;;;10.40;99.90;;;;;;5066897;28;20005;-64
2023/03/30 05:55:37;;;;;;;;;;;10.40;99.90;;;;;;5066737;28;19920;-64
2023/03/30 05:58:31;;;;;;;;;;;10.50;99.90;;;;;;5068537;28;20018;-64
2023/03/30 06:01:12;;;;;;;;;;;10.50;99.90;;;;;;5045789;28;19935;-64
2023/03/30 06:03:46;;;;;;;;;;;10.50;99.90;;;;;;5054875;28;19920;-64
2023/03/30 06:06:18;;;;;;;;;;;10.60;99.90;;;;;;5052418;28;19931;-64
2023/03/30 06:08:50;;;;;;;;;;;10.60;99.90;;;;;;5064159;28;20417;-64
2023/03/30 06:11:24;;;;;;;;;;;10.60;99.90;;;;;;5055933;28;19925;-64
2023/03/30 06:14:00;;;;;;;;;;;10.60;99.90;;;;;;5048767;28;19935;-64
2023/03/30 06:16:33;;;;;;;;;;;10.60;99.90;;;;;;5062934;28;20344;-64
2023/03/30 06:19:06;;;;;;;;;;;10.60;99.90;;;;;;5050221;28;19921;-64
2023/03/30 06:21:37;;;;;;;;;;;10.60;99.90;;;;;;5049430;28;19927;-65
2023/03/30 06:24:21;;;;;;;;;;;10.60;99.90;;;;;;5070271;28;19927;-64
2023/03/30 06:26:54;;;;;;;;;;;10.60;99.90;;;;;;5073203;28;19924;-65
2023/03/30 06:29:26;;;;;;;;;;;10.60;99.90;;;;;;5055586;28;19921;-64
2023/03/30 06:31:58;;;;;;;;;;;10.60;99.90;;;;;;5041741;28;19963;-64
2023/03/30 06:34:39;;;;;;;;;;;10.70;99.90;;;;;;5058079;28;20424;-64
2023/03/30 06:37:12;;;;;;;;;;;10.80;99.90;;;;;;5066500;28;20392;-64
2023/03/30 06:39:44;;;;;;;;;;;10.80;99.90;;;;;;5050930;28;19966;-64
2023/03/30 06:42:11;;;;;;;;;;;10.80;99.90;;;;;;5053098;28;20392;-64
2023/03/30 06:45:02;;;;;;;;;;;10.80;99.90;;;;;;5063724;28;20410;-64
2023/03/30 06:47:34;;;;;;;;;;;10.80;99.90;;;;;;5053297;28;20002;-64
2023/03/30 06:50:06;;;;;;;;;;;10.90;99.90;;;;;;5052996;28;19920;-64
2023/03/30 06:52:44;;;;;;;;;;;10.80;99.90;;;;;;5066585;28;19935;-64
2023/03/30 06:55:12;;;;;;;;;;;10.80;99.90;;;;;;5065584;28;20330;-64
2023/03/30 06:57:45;;;;;;;;;;;10.90;99.90;;;;;;5051196;28;20398;-64
2023/03/30 07:00:12;;;;;;;;;;;10.90;99.90;;;;;;5064659;28;19920;-64
2023/03/30 07:02:40;;;;;;;;;;;10.90;99.90;;;;;;5049109;28;19921;-64
2023/03/30 07:05:38;;;;;;;;;;;10.80;99.90;;;;;;5061450;28;20003;-64
2023/03/30 07:08:14;;;;;;;;;;;10.90;99.90;;;;;;5058068;28;19943;-64
2023/03/30 07:10:51;;;;;;;;;;;10.90;99.90;;;;;;5052253;28;19931;-64
2023/03/30 07:13:20;;;;;;;;;;;10.90;99.90;;;;;;5068862;28;19924;-64
2023/03/30 07:15:52;;;;;;;;;;;10.90;99.90;;;;;;5051811;28;19921;-64
2023/03/30 07:18:24;;;;;;;;;;;10.90;99.90;;;;;;5039944;28;19924;-64
2023/03/30 07:20:56;;;;;;;;;;;10.90;99.90;;;;;;5063932;28;19920;-64
2023/03/30 07:23:31;;;;;;;;;;;10.90;99.90;;;;;;5054004;28;19924;-64
2023/03/30 07:25:58;;;;;;;;;;;10.90;99.90;;;;;;5044273;28;19925;-64
2023/03/30 07:28:39;;;;;;;;;;;10.90;99.90;;;;;;5051670;28;20396;-64
2023/03/30 07:31:13;;;;;;;;;;;11.00;99.90;;;;;;5053849;28;20011;-64
2023/03/30 07:33:41;;;;;;;;;;;11.00;99.90;;;;;;5055911;28;19924;-64
2023/03/30 07:36:17;;;;;;;;;;;11.00;99.90;;;;;;5068346;28;20026;-64
2023/03/30 07:38:50;;;;;;;;;;;11.00;99.90;;;;;;5054392;28;19927;-64
2023/03/30 07:41:22;;;;;;;;;;;11.10;99.90;;;;;;5055418;28;19927;-64
2023/03/30 07:43:56;;;;;;;;;;;11.10;99.90;;;;;;5055896;28;19920;-64
2023/03/30 07:46:23;;;;;;;;;;;11.20;99.90;;;;;;5057643;28;20419;-64
2023/03/30 07:48:55;;;;;;;;;;;11.20;99.90;;;;;;5069249;28;19924;-64
2023/03/30 07:51:27;;;;;;;;;;;11.30;99.90;;;;;;5063548;28;20364;-64
2023/03/30 07:54:19;;;;;;;;;;;11.30;99.90;;;;;;5054289;28;19921;-64
2023/03/30 07:57:04;;;;;;;;;;;11.30;99.90;;;;;;5070392;28;19974;-64
2023/03/30 07:59:37;;;;;;;;;;;11.30;99.90;;;;;;5066111;28;20002;-64
2023/03/30 08:02:37;;;;;;;;;;;11.40;99.90;;;;;;5068446;28;20419;-64
2023/03/30 08:05:14;;;;;;;;;;;11.30;99.90;;;;;;5068918;28;19924;-64
2023/03/30 08:08:09;;;;;;;;;;;11.30;99.90;;;;;;5061697;28;19991;-64
2023/03/30 08:10:41;;;;;;;;;;;11.30;99.90;;;;;;5054129;28;20636;-64
2023/03/30 08:13:08;;;;;;;;;;;11.40;99.90;;;;;;5066895;28;19927;-64
2023/03/30 08:15:34;;;;;;;;;;;11.40;99.90;;;;;;5042144;28;20314;-64
2023/03/30 08:18:06;;;;;;;;;;;11.50;99.90;;;;;;5069773;28;19927;-64
2023/03/30 08:20:40;;;;;;;;;;;11.50;99.90;;;;;;5068283;28;19924;-64
2023/03/30 08:23:12;;;;;;;;;;;11.60;99.90;;;;;;5072442;28;19928;-64
2023/03/30 08:25:39;;;;;;;;;;;11.60;99.90;;;;;;5070641;28;19924;-66
2023/03/30 08:28:10;;;;;;;;;;;11.70;99.90;;;;;;5057150;28;20001;-64
2023/03/30 08:30:43;;;;;;;;;;;11.70;99.90;;;;;;5071031;28;20011;-64
2023/03/30 08:33:10;;;;;;;;;;;11.70;99.90;;;;;;5070705;28;19927;-64
2023/03/30 08:35:45;;;;;;;;;;;11.80;99.90;;;;;;5070693;28;20290;-64
2023/03/30 08:38:17;;;;;;;;;;;11.80;99.90;;;;;;5054742;28;19920;-64
2023/03/30 08:40:49;;;;;;;;;;;11.90;99.90;;;;;;5042512;28;19924;-64
2023/03/30 08:43:27;;;;;;;;;;;12.00;99.90;;;;;;5072316;28;20011;-64
2023/03/30 08:45:57;;;;;;;;;;;12.10;99.90;;;;;;5071837;28;19932;-64
2023/03/30 08:48:26;;;;;;;;;;;12.20;99.90;;;;;;5070089;28;19925;-64
2023/03/30 08:50:57;;;;;;;;;;;12.30;99.90;;;;;;5067352;28;20463;-64
2023/03/30 08:53:31;;;;;;;;;;;12.30;99.90;;;;;;5066103;28;19924;-64
2023/03/30 08:56:18;;;;;;;;;;;12.30;99.90;;;;;;5065895;28;19931;-64
2023/03/30 08:58:53;;;;;;;;;;;12.30;99.90;;;;;;5065941;28;19978;-64
2023/03/30 09:01:33;;;;;;;;;;;12.40;99.90;;;;;;5067873;28;20284;-64
2023/03/30 09:04:23;;;;;;;;;;;12.40;99.90;;;;;;5051422;28;19928;-64
2023/03/30 09:06:55;;;;;;;;;;;12.40;99.90;;;;;;5056474;28;20393;-64
2023/03/30 09:09:28;;;;;;;;;;;12.40;99.90;;;;;;5073161;28;19927;-64
2023/03/30 09:12:07;;;;;;;;;;;12.40;99.90;;;;;;5068404;28;20018;-64
2023/03/30 09:14:42;;;;;;;;;;;12.40;99.90;;;;;;5068229;28;19928;-64
2023/03/30 09:17:16;;;;;;;;;;;12.40;99.90;;;;;;5068682;28;19921;-64
2023/03/30 09:19:48;;;;;;;;;;;12.40;99.90;;;;;;5052182;28;19975;-64
2023/03/30 09:22:28;;;;;;;;;;;12.40;99.90;;;;;;5068930;28;19924;-64
2023/03/30 09:24:55;;;;;;;;;;;12.50;99.90;;;;;;5070767;28;19924;-64
2023/03/30 09:27:26;;;;;;;;;;;12.50;99.90;;;;;;5068189;28;20038;-64
2023/03/30 09:30:03;;;;;;;;;;;12.50;99.90;;;;;;5071869;28;19959;-64
2023/03/30 09:32:40;;;;;;;;;;;12.50;99.90;;;;;;5056905;28;19952;-64
2023/03/30 09:35:20;;;;;;;;;;;12.60;99.90;;;;;;5070273;28;19975;-64
2023/03/30 09:37:47;;;;;;;;;;;12.60;99.90;;;;;;5054052;28;19924;-65
2023/03/30 09:40:24;;;;;;;;;;;12.50;99.90;;;;;;5066648;28;19924;-64
2023/03/30 09:43:09;;;;;;;;;;;12.50;99.90;;;;;;5054570;28;19924;-64
2023/03/30 09:45:43;;;;;;;;;;;12.50;99.90;;;;;;5049131;28;20416;-64
2023/03/30 09:48:16;;;;;;;;;;;12.50;99.90;;;;;;5066982;28;19990;-64
2023/03/30 09:50:43;;;;;;;;;;;12.60;99.90;;;;;;5052355;28;20588;-65
2023/03/30 09:53:20;;;;;;;;;;;12.60;99.90;;;;;;5053191;28;20369;-64
2023/03/30 09:55:59;;;;;;;;;;;12.60;99.90;;;;;;5053817;28;19928;-64
2023/03/30 09:58:32;;;;;;;;;;;12.70;99.90;;;;;;5066050;28;20017;-65
2023/03/30 10:01:04;;;;;;;;;;;12.70;99.90;;;;;;5070214;28;19924;-64
2023/03/30 10:03:36;;;;;;;;;;;12.70;99.90;;;;;;5066350;28;20007;-64
2023/03/30 10:06:11;;;;;;;;;;;12.60;99.90;;;;;;5066754;28;19920;-64
2023/03/30 10:08:49;;;;;;;;;;;12.60;99.90;;;;;;5064116;28;19965;-65
2023/03/30 10:11:33;;;;;;;;;;;12.70;99.90;;;;;;5057229;28;19920;-65
2023/03/30 10:14:00;;;;;;;;;;;12.70;99.90;;;;;;5065556;28;19921;-64
2023/03/30 10:16:32;;;;;;;;;;;12.70;99.90;;;;;;5068034;28;19920;-64
2023/03/30 10:19:14;;;;;;;;;;;12.80;99.90;;;;;;5068632;28;19924;-64
2023/03/30 10:21:46;;;;;;;;;;;12.70;99.90;;;;;;5066405;28;19928;-65
2023/03/30 10:24:13;;;;;;;;;;;12.70;99.90;;;;;;5068514;28;20338;-65
2023/03/30 10:26:45;;;;;;;;;;;12.70;99.90;;;;;;5059809;28;19975;-65
2023/03/30 10:29:15;;;;;;;;;;;12.60;99.90;;;;;;5049702;28;19970;-65
2023/03/30 10:31:47;;;;;;;;;;;12.60;99.90;;;;;;5067360;28;19924;-65
2023/03/30 10:34:39;;;;;;;;;;;12.50;99.90;;;;;;5067605;28;19920;-64
2023/03/30 10:37:17;;;;;;;;;;;12.50;99.90;;;;;;5050207;28;20442;-64
2023/03/30 10:39:50;;;;;;;;;;;12.40;99.90;;;;;;5068531;28;19921;-64
2023/03/30 10:42:24;;;;;;;;;;;12.40;99.90;;;;;;5067311;28;19935;-64
2023/03/30 10:44:52;;;;;;;;;;;12.30;99.90;;;;;;5052014;28;19920;-65
2023/03/30 10:47:44;;;;;;;;;;;12.30;99.90;;;;;;5051948;28;19924;-64
2023/03/30 10:50:19;;;;;;;;;;;12.30;99.90;;;;;;5064587;28;19926;-64
2023/03/30 10:53:06;;;;;;;;;;;12.10;99.90;;;;;;5036039;28;19924;-64
2023/03/30 10:55:57;;;;;;;;;;;12.10;99.90;;;;;;5062806;28;20035;-64
2023/03/30 10:58:48;;;;;;;;;;;12.10;99.90;;;;;;5068448;28;19924;-64
2023/03/30 11:01:19;;;;;;;;;;;11.90;99.90;;;;;;5050346;28;19921;-64
2023/03/30 11:03:56;;;;;;;;;;;11.80;99.90;;;;;;5072476;28;19928;-64
2023/03/30 11:06:30;;;;;;;;;;;11.80;99.90;;;;;;5070696;28;19974;-64
2023/03/30 11:08:59;;;;;;;;;;;11.70;99.90;;;;;;5069046;28;19934;-66
2023/03/30 11:11:33;;;;;;;;;;;11.60;99.90;;;;;;5072190;28;20400;-64
2023/03/30 11:14:08;;;;;;;;;;;11.60;99.90;;;;;;5066942;28;20371;-64
2023/03/30 11:16:44;;;;;;;;;;;11.50;99.90;;;;;;5069748;28;19932;-63
2023/03/30 11:19:19;;;;;;;;;;;11.40;99.90;;;;;;5069180;28;20392;-63
2023/03/30 11:22:01;;;;;;;;;;;11.30;99.90;;;;;;5059293;28;19924;-63
2023/03/30 11:24:33;;;;;;;;;;;11.20;99.90;;;;;;5038205;28;19924;-63
2023/03/30 11:27:11;;;;;;;;;;;11.10;99.90;;;;;;5069036;28;19920;-64
2023/03/30 11:29:42;;;;;;;;;;;11.00;99.90;;;;;;5056286;28;19924;-63
2023/03/30 11:32:23;;;;;;;;;;;10.90;99.90;;;;;;5069933;28;19920;-63
2023/03/30 11:34:58;;;;;;;;;;;10.80;99.90;;;;;;5052232;28;19931;-63
2023/03/30 11:37:39;;;;;;;;;;;10.80;99.90;;;;;;5066806;28;19943;-63
2023/03/30 11:40:21;;;;;;;;;;;10.70;99.90;;;;;;5070531;28;19920;-63
2023/03/30 11:42:53;;;;;;;;;;;10.60;99.90;;;;;;5056048;28;19927;-64
2023/03/30 11:45:29;;;;;;;;;;;10.50;99.90;;;;;;5055958;28;19920;-64
2023/03/30 11:48:04;;;;;;;;;;;10.50;99.90;;;;;;5065647;28;20008;-64
2023/03/30 11:50:55;;;;;;;;;;;10.50;99.90;;;;;;5065015;28;20416;-64
2023/03/30 11:53:32;;;;;;;;;;;10.60;99.90;;;;;;5055893;28;19920;-64
2023/03/30 11:56:05;;;;;;;;;;;10.70;99.90;;;;;;5067853;28;19920;-64
2023/03/30 11:58:41;;;;;;;;;;;10.70;99.90;;;;;;5054402;28;20343;-64
2023/03/30 12:01:31;;;;;;;;;;;10.70;99.90;;;;;;5066626;28;19931;-64
2023/03/30 12:04:14;;;;;;;;;;;10.80;99.90;;;;;;5066183;28;19928;-64
2023/03/30 12:06:50;;;;;;;;;;;10.80;99.90;;;;;;5065138;28;19924;-64
2023/03/30 12:09:36;;;;;;;;;;;10.90;99.90;;;;;;5069539;28;19931;-64
2023/03/30 12:12:16;;;;;;;;;;;10.90;99.90;;;;;;5066396;28;19921;-64
2023/03/30 12:14:48;;;;;;;;;;;11.00;99.90;;;;;;5068857;28;19919;-64
2023/03/30 12:17:32;;;;;;;;;;;11.10;99.90;;;;;;5050050;28;20296;-64
2023/03/30 12:20:04;;;;;;;;;;;11.10;99.90;;;;;;5065830;28;19943;-64
2023/03/30 12:22:41;;;;;;;;;;;11.10;99.90;;;;;;5050545;28;19924;-64
2023/03/30 12:25:29;;;;;;;;;;;11.20;99.90;;;;;;5052019;28;19978;-64
2023/03/30 12:28:07;;;;;;;;;;;11.20;99.90;;;;;;5065287;28;20343;-64
2023/03/30 12:30:42;;;;;;;;;;;11.10;99.90;;;;;;5053605;28;20297;-64
2023/03/30 12:33:14;;;;;;;;;;;11.10;99.90;;;;;;5052920;28;20001;-64
2023/03/30 12:35:49;;;;;;;;;;;11.10;99.90;;;;;;5051897;28;19920;-64
2023/03/30 12:38:24;;;;;;;;;;;11.00;99.90;;;;;;5069382;28;20615;-64
2023/03/30 12:41:16;;;;;;;;;;;11.00;99.90;;;;;;5063901;28;20381;-64
2023/03/30 12:43:46;;;;;;;;;;;11.00;99.90;;;;;;5051967;28;19929;-64
2023/03/30 12:46:34;;;;;;;;;;;10.90;99.90;;;;;;5046373;28;19930;-65
2023/03/30 12:49:14;;;;;;;;;;;10.90;99.90;;;;;;5060673;28;19920;-64
2023/03/30 12:51:56;;;;;;;;;;;10.90;99.90;;;;;;5062902;28;19921;-66
2023/03/30 12:54:28;;;;;;;;;;;10.90;99.90;;;;;;5072763;28;19947;-64
2023/03/30 12:57:07;;;;;;;;;;;10.90;99.90;;;;;;5052560;28;20004;-64
2023/03/30 12:59:44;;;;;;;;;;;10.90;99.90;;;;;;5070656;28;19920;-64
2023/03/30 13:02:19;;;;;;;;;;;10.90;99.90;;;;;;5067319;28;19931;-64
2023/03/30 13:04:51;;;;;;;;;;;10.90;99.90;;;;;;5064681;28;20393;-64
2023/03/30 13:07:22;;;;;;;;;;;11.00;99.90;;;;;;5064228;28;20450;-64
2023/03/30 13:09:56;;;;;;;;;;;11.10;99.90;;;;;;5054461;28;19978;-64
2023/03/30 13:12:33;;;;;;;;;;;11.10;99.90;;;;;;5065835;28;19924;-65
2023/03/30 13:15:14;;;;;;;;;;;11.20;99.90;;;;;;5064439;28;19920;-65
2023/03/30 13:18:01;;;;;;;;;;;11.20;99.90;;;;;;5067809;28;20405;-65
2023/03/30 13:20:35;;;;;;;;;;;11.30;99.90;;;;;;5069348;28;20304;-65
2023/03/30 13:23:05;;;;;;;;;;;11.30;99.90;;;;;;5054282;28;19992;-65
2023/03/30 13:25:40;;;;;;;;;;;11.40;99.90;;;;;;5067920;28;19924;-65
2023/03/30 13:28:38;;;;;;;;;;;11.40;99.90;;;;;;5064830;28;19920;-65
2023/03/30 13:31:19;;;;;;;;;;;11.40;99.90;;;;;;5052698;28;19959;-65
2023/03/30 13:33:56;;;;;;;;;;;11.40;99.90;;;;;;5065583;28;19947;-65
2023/03/30 13:36:31;;;;;;;;;;;11.40;99.90;;;;;;5066577;28;19924;-64
2023/03/30 13:39:03;;;;;;;;;;;11.50;99.90;;;;;;5065134;28;19928;-65
2023/03/30 13:41:32;;;;;;;;;;;11.40;99.90;;;;;;5066807;28;19982;-64
2023/03/30 13:44:43;;;;;;;;;;;11.40;99.90;;;;;;5064729;28;19970;-64
2023/03/30 13:47:15;;;;;;;;;;;11.40;99.90;;;;;;5026506;28;20360;-65
2023/03/30 13:49:50;;;;;;;;;;;11.50;99.90;;;;;;5014554;28;19925;-64
2023/03/30 13:52:33;;;;;;;;;;;11.40;99.90;;;;;;5052877;28;20625;-64
2023/03/30 13:55:13;;;;;;;;;;;11.50;99.90;;;;;;5066166;28;19925;-65
2023/03/30 13:57:45;;;;;;;;;;;11.50;99.90;;;;;;5060579;28;20026;-64
2023/03/30 14:00:17;;;;;;;;;;;11.40;99.90;;;;;;5058616;28;19920;-64
2023/03/30 14:02:48;;;;;;;;;;;11.40;99.90;;;;;;5052038;28;19926;-64
2023/03/30 14:05:20;;;;;;;;;;;11.40;99.90;;;;;;5070697;28;19926;-64
2023/03/30 14:07:56;;;;;;;;;;;11.40;99.90;;;;;;5050441;28;19920;-65
2023/03/30 14:10:28;;;;;;;;;;;11.50;99.90;;;;;;5064010;28;19920;-64
2023/03/30 14:12:59;;;;;;;;;;;11.50;99.90;;;;;;5048521;28;19920;-64
2023/03/30 14:15:31;;;;;;;;;;;11.60;99.90;;;;;;5064684;28;19928;-64
2023/03/30 14:18:04;;;;;;;;;;;11.70;99.90;;;;;;5064384;28;19925;-64
2023/03/30 14:20:44;;;;;;;;;;;11.70;99.90;;;;;;5067011;28;19920;-64
2023/03/30 14:23:22;;;;;;;;;;;11.70;99.90;;;;;;5064617;28;19920;-64
2023/03/30 14:25:52;;;;;;;;;;;11.70;99.90;;;;;;5052011;28;19978;-64
2023/03/30 14:28:25;;;;;;;;;;;11.70;99.90;;;;;;5065942;28;20473;-65
2023/03/30 14:30:58;;;;;;;;;;;11.70;99.90;;;;;;5058282;28;19979;-65
2023/03/30 14:33:31;;;;;;;;;;;11.90;99.90;;;;;;5045314;28;19925;-64
2023/03/30 14:36:03;;;;;;;;;;;12.30;99.90;;;;;;5063054;28;20636;-64
2023/03/30 14:38:38;;;;;;;;;;;12.70;99.90;;;;;;5064894;28;19920;-64
2023/03/30 14:41:22;;;;;;;;;;;12.70;99.90;;;;;;5068558;28;19924;-64
2023/03/30 14:44:02;;;;;;;;;;;12.60;99.90;;;;;;5053945;28;19924;-64
2023/03/30 14:46:37;;;;;;;;;;;12.50;99.90;;;;;;5052490;28;19924;-64
2023/03/30 14:49:13;;;;;;;;;;;12.60;99.90;;;;;;5062298;28;19920;-64
2023/03/30 14:51:41;;;;;;;;;;;12.60;99.90;;;;;;5061081;28;19928;-64
2023/03/30 14:54:12;;;;;;;;;;;12.50;99.90;;;;;;5040750;28;19920;-64
2023/03/30 14:56:45;;;;;;;;;;;12.30;99.90;;;;;;5052394;28;19924;-64
2023/03/30 14:59:17;;;;;;;;;;;12.30;99.90;;;;;;5065776;28;19921;-64
2023/03/30 15:01:50;;;;;;;;;;;12.70;99.90;;;;;;5066943;28;20407;-64
2023/03/30 15:04:24;;;;;;;;;;;12.90;99.90;;;;;;5068586;28;19927;-64
2023/03/30 15:06:56;;;;;;;;;;;13.10;99.90;;;;;;5063769;28;19927;-64
2023/03/30 15:09:23;;;;;;;;;;;13.20;99.90;;;;;;5065163;28;19951;-64
2023/03/30 15:11:57;;;;;;;;;;;13.50;99.90;;;;;;5061365;28;20340;-64
2023/03/30 15:14:32;;;;;;;;;;;13.70;99.90;;;;;;5048474;28;19920;-64